createdAt,value
2017-01-28T00:00:59.959Z,1021.19
2017-01-28T00:02:22.832Z,1021.19
2017-01-28T00:03:45.397Z,1021.2
2017-01-28T00:05:08.167Z,1021.18
2017-01-28T00:06:30.269Z,1021.12
2017-01-28T00:07:51.562Z,1021.09
2017-01-28T00:09:14.029Z,1021.1
2017-01-28T00:10:36.362Z,1021.03
2017-01-28T00:11:58.421Z,1021.03
2017-01-28T00:13:21.033Z,1021.03
2017-01-28T00:14:43.501Z,1021.01
2017-01-28T00:16:06.600Z,1021.01
2017-01-28T00:17:29.028Z,1020.99
2017-01-28T00:18:51.886Z,1020.93
2017-01-28T00:20:13.938Z,1020.88
2017-01-28T00:21:36.272Z,1020.88
2017-01-28T00:22:58.340Z,1020.91
2017-01-28T00:24:21.375Z,1020.82
2017-01-28T00:25:43.902Z,1020.77
2017-01-28T00:27:06.263Z,1020.76
2017-01-28T00:28:28.353Z,1020.7
2017-01-28T00:29:50.868Z,1020.62
2017-01-28T00:31:13.725Z,1020.67
2017-01-28T00:32:36.441Z,1020.77
2017-01-28T00:33:58.614Z,1020.85
2017-01-28T00:35:20.751Z,1020.89
2017-01-28T00:36:42.893Z,1020.87
2017-01-28T00:38:06.086Z,1020.93
2017-01-28T00:39:28.562Z,1020.99
2017-01-28T00:40:50.221Z,1020.96
2017-01-28T00:42:12.702Z,1020.94
2017-01-28T00:43:35.185Z,1020.95
2017-01-28T00:44:57.359Z,1020.98
2017-01-28T00:46:18.620Z,1020.97
2017-01-28T00:47:41.098Z,1020.94
2017-01-28T00:49:03.878Z,1020.95
2017-01-28T00:50:26.754Z,1020.98
2017-01-28T00:51:48.911Z,1020.94
2017-01-28T00:53:10.628Z,1020.95
2017-01-28T00:54:32.934Z,1020.99
2017-01-28T00:55:55.463Z,1021.03
2017-01-28T00:57:17.302Z,1021.03
2017-01-28T00:58:39.791Z,1021
2017-01-28T01:00:01.359Z,1021.02
2017-01-28T01:01:23.036Z,1021
2017-01-28T01:02:44.694Z,1021.03
2017-01-28T01:04:07.183Z,1021
2017-01-28T01:05:29.952Z,1020.98
2017-01-28T01:06:52.423Z,1020.99
2017-01-28T01:08:14.885Z,1021.02
2017-01-28T01:09:36.955Z,1020.97
2017-01-28T01:10:59.805Z,1020.96
2017-01-28T01:12:21.854Z,1021.01
2017-01-28T01:13:43.511Z,1021.02
2017-01-28T01:15:05.565Z,1021.01
2017-01-28T01:16:27.863Z,1020.98
2017-01-28T01:17:49.901Z,1020.99
2017-01-28T01:19:11.194Z,1021
2017-01-28T01:20:33.678Z,1020.97
2017-01-28T01:21:56.462Z,1020.91
2017-01-28T01:23:18.516Z,1020.9
2017-01-28T01:24:41.533Z,1020.92
2017-01-28T01:26:04.393Z,1020.9
2017-01-28T01:27:27.096Z,1020.9
2017-01-28T01:28:48.374Z,1020.96
2017-01-28T01:30:10.424Z,1020.94
2017-01-28T01:31:32.495Z,1020.93
2017-01-28T01:32:54.413Z,1020.93
2017-01-28T01:34:16.872Z,1020.85
2017-01-28T01:35:38.530Z,1020.85
2017-01-28T01:37:00.597Z,1020.82
2017-01-28T01:38:23.863Z,1020.8
2017-01-28T01:39:46.325Z,1020.83
2017-01-28T01:41:07.594Z,1020.82
2017-01-28T01:42:29.260Z,1020.83
2017-01-28T01:43:51.622Z,1020.77
2017-01-28T01:45:14.085Z,1020.78
2017-01-28T01:46:36.158Z,1020.74
2017-01-28T01:47:58.294Z,1020.73
2017-01-28T01:49:21.077Z,1020.72
2017-01-28T01:50:43.209Z,1020.71
2017-01-28T01:52:05.783Z,1020.71
2017-01-28T01:53:27.836Z,1020.71
2017-01-28T01:54:50.172Z,1020.71
2017-01-28T01:56:12.237Z,1020.72
2017-01-28T01:57:34.300Z,1020.73
2017-01-28T01:58:56.358Z,1020.68
2017-01-28T02:00:18.704Z,1020.71
2017-01-28T02:01:40.795Z,1020.68
2017-01-28T02:03:02.866Z,1020.68
2017-01-28T02:04:25.725Z,1020.64
2017-01-28T02:05:49.111Z,1020.64
2017-01-28T02:07:11.180Z,1020.63
2017-01-28T02:08:33.254Z,1020.6
2017-01-28T02:09:54.923Z,1020.63
2017-01-28T02:11:17.631Z,1020.59
2017-01-28T02:12:38.953Z,1020.57
2017-01-28T02:14:00.639Z,1020.58
2017-01-28T02:15:22.686Z,1020.53
2017-01-28T02:16:44.995Z,1020.52
2017-01-28T02:18:07.854Z,1020.52
2017-01-28T02:19:29.914Z,1020.55
2017-01-28T02:20:52.381Z,1020.53
2017-01-28T02:22:14.278Z,1020.52
2017-01-28T02:23:36.866Z,1020.52
2017-01-28T02:24:59.047Z,1020.51
2017-01-28T02:26:20.950Z,1020.48
2017-01-28T02:27:43.788Z,1020.45
2017-01-28T02:29:05.459Z,1020.49
2017-01-28T02:30:27.514Z,1020.52
2017-01-28T02:31:49.589Z,1020.52
2017-01-28T02:33:11.951Z,1020.49
2017-01-28T02:34:34.108Z,1020.52
2017-01-28T02:35:56.190Z,1020.48
2017-01-28T02:37:18.637Z,1020.51
2017-01-28T02:38:41.566Z,1020.51
2017-01-28T02:40:04.015Z,1020.47
2017-01-28T02:41:26.099Z,1020.51
2017-01-28T02:42:48.140Z,1020.47
2017-01-28T02:44:10.853Z,1020.48
2017-01-28T02:45:33.311Z,1020.43
2017-01-28T02:46:55.785Z,1020.4
2017-01-28T02:48:18.318Z,1020.37
2017-01-28T02:49:41.030Z,1020.37
2017-01-28T02:51:03.464Z,1020.38
2017-01-28T02:52:26.342Z,1020.39
2017-01-28T02:53:48.856Z,1020.36
2017-01-28T02:55:10.863Z,1020.35
2017-01-28T02:56:33.805Z,1020.35
2017-01-28T02:57:56.260Z,1020.34
2017-01-28T02:59:18.301Z,1020.34
2017-01-28T03:00:39.858Z,1020.28
2017-01-28T03:02:02.311Z,1020.3
2017-01-28T03:03:24.381Z,1020.34
2017-01-28T03:04:46.929Z,1020.29
2017-01-28T03:06:09.242Z,1020.3
2017-01-28T03:07:31.819Z,1020.27
2017-01-28T03:08:53.880Z,1020.25
2017-01-28T03:10:15.562Z,1020.26
2017-01-28T03:11:38.673Z,1020.26
2017-01-28T03:13:01.164Z,1020.29
2017-01-28T03:14:22.450Z,1020.25
2017-01-28T03:15:44.919Z,1020.29
2017-01-28T03:17:06.865Z,1020.23
2017-01-28T03:18:27.723Z,1020.25
2017-01-28T03:19:49.431Z,1020.26
2017-01-28T03:21:11.500Z,1020.25
2017-01-28T03:22:34.212Z,1020.19
2017-01-28T03:23:56.277Z,1020.17
2017-01-28T03:25:18.780Z,1020.15
2017-01-28T03:26:40.971Z,1020.13
2017-01-28T03:28:04.152Z,1020.19
2017-01-28T03:29:26.223Z,1020.17
2017-01-28T03:30:47.881Z,1020.2
2017-01-28T03:32:09.919Z,1020.2
2017-01-28T03:33:32.674Z,1020.19
2017-01-28T03:34:53.985Z,1020.2
2017-01-28T03:36:16.039Z,1020.14
2017-01-28T03:37:37.708Z,1020.19
2017-01-28T03:39:00.151Z,1020.18
2017-01-28T03:40:22.622Z,1020.23
2017-01-28T03:41:45.491Z,1020.28
2017-01-28T03:43:07.572Z,1020.19
2017-01-28T03:44:29.917Z,1020.22
2017-01-28T03:45:52.025Z,1020.21
2017-01-28T03:47:14.093Z,1020.21
2017-01-28T03:48:35.746Z,1020.19
2017-01-28T03:49:57.829Z,1020.18
2017-01-28T03:51:19.873Z,1020.11
2017-01-28T03:52:41.534Z,1020.12
2017-01-28T03:54:03.692Z,1020.13
2017-01-28T03:55:25.603Z,1020.13
2017-01-28T03:56:46.588Z,1020.13
2017-01-28T03:58:08.272Z,1020.06
2017-01-28T03:59:30.340Z,1020.02
2017-01-28T04:00:53.074Z,1020.01
2017-01-28T04:02:15.160Z,1020.05
2017-01-28T04:03:37.221Z,1020.03
2017-01-28T04:04:59.689Z,1020
2017-01-28T04:06:21.595Z,1019.95
2017-01-28T04:07:44.426Z,1019.95
2017-01-28T04:09:06.523Z,1019.92
2017-01-28T04:10:28.582Z,1019.94
2017-01-28T04:11:51.313Z,1019.87
2017-01-28T04:13:13.440Z,1019.85
2017-01-28T04:14:35.931Z,1019.88
2017-01-28T04:15:58.394Z,1019.87
2017-01-28T04:17:21.533Z,1019.92
2017-01-28T04:18:43.998Z,1019.88
2017-01-28T04:20:05.769Z,1019.91
2017-01-28T04:21:27.473Z,1019.95
2017-01-28T04:22:50.269Z,1019.9
2017-01-28T04:24:11.950Z,1019.86
2017-01-28T04:25:33.214Z,1019.91
2017-01-28T04:26:55.275Z,1019.89
2017-01-28T04:28:18.089Z,1019.83
2017-01-28T04:29:39.754Z,1019.86
2017-01-28T04:31:02.282Z,1019.87
2017-01-28T04:32:24.336Z,1019.87
2017-01-28T04:33:47.096Z,1019.88
2017-01-28T04:35:09.328Z,1019.9
2017-01-28T04:36:31.875Z,1019.96
2017-01-28T04:37:52.734Z,1019.94
2017-01-28T04:39:15.053Z,1019.93
2017-01-28T04:40:37.644Z,1019.96
2017-01-28T04:41:58.955Z,1019.92
2017-01-28T04:43:21.429Z,1019.9
2017-01-28T04:44:42.940Z,1019.94
2017-01-28T04:46:04.623Z,1019.95
2017-01-28T04:47:27.182Z,1019.92
2017-01-28T04:48:49.649Z,1019.95
2017-01-28T04:50:12.362Z,1019.93
2017-01-28T04:51:34.295Z,1019.91
2017-01-28T04:52:56.834Z,1019.92
2017-01-28T04:54:19.372Z,1019.92
2017-01-28T04:55:42.539Z,1019.87
2017-01-28T04:57:04.217Z,1019.87
2017-01-28T04:58:26.261Z,1019.9
2017-01-28T04:59:47.579Z,1019.84
2017-01-28T05:01:10.156Z,1019.83
2017-01-28T05:02:31.828Z,1019.81
2017-01-28T05:03:54.380Z,1019.78
2017-01-28T05:05:16.948Z,1019.79
2017-01-28T05:06:38.487Z,1019.82
2017-01-28T05:08:01.334Z,1019.8
2017-01-28T05:09:23.383Z,1019.82
2017-01-28T05:10:45.051Z,1019.81
2017-01-28T05:12:06.693Z,1019.85
2017-01-28T05:13:29.151Z,1019.77
2017-01-28T05:14:52.125Z,1019.81
2017-01-28T05:16:14.985Z,1019.82
2017-01-28T05:17:37.077Z,1019.82
2017-01-28T05:18:59.163Z,1019.85
2017-01-28T05:20:21.248Z,1019.87
2017-01-28T05:21:43.324Z,1019.87
2017-01-28T05:23:05.646Z,1019.89
2017-01-28T05:24:27.361Z,1019.87
2017-01-28T05:25:49.833Z,1019.92
2017-01-28T05:27:11.899Z,1019.93
2017-01-28T05:28:34.382Z,1019.9
2017-01-28T05:29:56.837Z,1019.92
2017-01-28T05:31:18.893Z,1019.9
2017-01-28T05:32:41.462Z,1019.91
2017-01-28T05:34:03.463Z,1019.94
2017-01-28T05:35:25.895Z,1019.94
2017-01-28T05:36:48.783Z,1019.95
2017-01-28T05:38:11.637Z,1019.97
2017-01-28T05:39:34.773Z,1019.93
2017-01-28T05:40:56.843Z,1019.91
2017-01-28T05:42:18.535Z,1019.94
2017-01-28T05:43:40.233Z,1019.92
2017-01-28T05:45:02.588Z,1019.95
2017-01-28T05:46:23.853Z,1019.9
2017-01-28T05:47:46.383Z,1019.92
2017-01-28T05:49:08.431Z,1019.92
2017-01-28T05:50:30.739Z,1019.92
2017-01-28T05:51:53.219Z,1019.89
2017-01-28T05:53:14.872Z,1019.93
2017-01-28T05:54:36.923Z,1019.9
2017-01-28T05:55:59.437Z,1019.92
2017-01-28T05:57:22.027Z,1019.91
2017-01-28T05:58:44.489Z,1019.91
2017-01-28T06:00:05.761Z,1019.89
2017-01-28T06:01:27.682Z,1019.92
2017-01-28T06:02:49.805Z,1019.88
2017-01-28T06:04:12.670Z,1019.89
2017-01-28T06:05:35.599Z,1019.91
2017-01-28T06:06:57.637Z,1019.93
2017-01-28T06:08:19.843Z,1019.92
2017-01-28T06:09:41.666Z,1019.9
2017-01-28T06:11:03.831Z,1019.89
2017-01-28T06:12:25.824Z,1019.91
2017-01-28T06:13:48.332Z,1019.87
2017-01-28T06:15:10.398Z,1019.86
2017-01-28T06:16:32.453Z,1019.84
2017-01-28T06:17:54.772Z,1019.88
2017-01-28T06:19:17.263Z,1019.9
2017-01-28T06:20:39.321Z,1019.87
2017-01-28T06:22:01.898Z,1019.83
2017-01-28T06:23:24.691Z,1019.8
2017-01-28T06:24:46.772Z,1019.86
2017-01-28T06:26:08.839Z,1019.8
2017-01-28T06:27:31.703Z,1019.78
2017-01-28T06:28:54.100Z,1019.83
2017-01-28T06:30:16.573Z,1019.79
2017-01-28T06:31:38.625Z,1019.77
2017-01-28T06:33:00.755Z,1019.76
2017-01-28T06:34:22.661Z,1019.75
2017-01-28T06:35:44.723Z,1019.74
2017-01-28T06:37:07.244Z,1019.74
2017-01-28T06:38:28.511Z,1019.74
2017-01-28T06:39:51.604Z,1019.74
2017-01-28T06:41:12.552Z,1019.77
2017-01-28T06:42:34.341Z,1019.73
2017-01-28T06:43:57.278Z,1019.69
2017-01-28T06:45:19.709Z,1019.67
2017-01-28T06:46:41.771Z,1019.67
2017-01-28T06:48:03.031Z,1019.61
2017-01-28T06:49:25.894Z,1019.71
2017-01-28T06:50:47.813Z,1019.72
2017-01-28T06:52:10.668Z,1019.74
2017-01-28T06:53:33.141Z,1019.74
2017-01-28T06:54:56.085Z,1019.73
2017-01-28T06:56:18.780Z,1019.73
2017-01-28T06:57:41.245Z,1019.8
2017-01-28T06:59:02.899Z,1019.79
2017-01-28T07:00:24.997Z,1019.8
2017-01-28T07:01:47.466Z,1019.83
2017-01-28T07:03:09.146Z,1019.83
2017-01-28T07:04:32.134Z,1019.84
2017-01-28T07:05:54.613Z,1019.85
2017-01-28T07:07:16.513Z,1019.86
2017-01-28T07:08:38.540Z,1019.9
2017-01-28T07:10:00.222Z,1019.87
2017-01-28T07:11:22.281Z,1019.89
2017-01-28T07:12:43.800Z,1019.91
2017-01-28T07:14:06.243Z,1019.96
2017-01-28T07:15:27.915Z,1019.96
2017-01-28T07:16:50.371Z,1019.98
2017-01-28T07:18:12.297Z,1019.98
2017-01-28T07:19:34.772Z,1019.98
2017-01-28T07:20:57.642Z,1019.94
2017-01-28T07:22:19.323Z,1020
2017-01-28T07:23:42.460Z,1019.92
2017-01-28T07:25:04.811Z,1019.98
2017-01-28T07:26:26.950Z,1019.95
2017-01-28T07:27:49.492Z,1019.98
2017-01-28T07:29:12.239Z,1019.98
2017-01-28T07:30:33.962Z,1019.93
2017-01-28T07:31:56.002Z,1019.93
2017-01-28T07:33:17.681Z,1019.93
2017-01-28T07:34:40.063Z,1019.92
2017-01-28T07:36:02.174Z,1019.91
2017-01-28T07:37:24.641Z,1019.94
2017-01-28T07:38:47.601Z,1019.91
2017-01-28T07:40:09.920Z,1019.95
2017-01-28T07:41:31.648Z,1019.9
2017-01-28T07:42:53.350Z,1019.96
2017-01-28T07:44:15.022Z,1019.93
2017-01-28T07:45:37.822Z,1019.93
2017-01-28T07:46:59.492Z,1019.9
2017-01-28T07:48:21.955Z,1019.9
2017-01-28T07:49:43.614Z,1019.89
2017-01-28T07:51:06.464Z,1019.95
2017-01-28T07:52:29.352Z,1019.91
2017-01-28T07:53:51.502Z,1019.9
2017-01-28T07:55:13.590Z,1019.86
2017-01-28T07:56:35.572Z,1019.85
2017-01-28T07:57:57.232Z,1019.85
2017-01-28T07:59:19.334Z,1019.83
2017-01-28T08:00:40.601Z,1019.83
2017-01-28T08:02:02.528Z,1019.83
2017-01-28T08:03:25.001Z,1019.86
2017-01-28T08:04:47.121Z,1019.78
2017-01-28T08:06:09.663Z,1019.84
2017-01-28T08:07:31.753Z,1019.85
2017-01-28T08:08:54.662Z,1019.8
2017-01-28T08:10:16.729Z,1019.8
2017-01-28T08:11:38.783Z,1019.85
2017-01-28T08:13:01.481Z,1019.79
2017-01-28T08:14:23.161Z,1019.81
2017-01-28T08:15:45.222Z,1019.81
2017-01-28T08:17:06.939Z,1019.79
2017-01-28T08:18:28.912Z,1019.85
2017-01-28T08:19:50.998Z,1019.79
2017-01-28T08:21:13.854Z,1019.84
2017-01-28T08:22:35.951Z,1019.83
2017-01-28T08:23:58.690Z,1019.83
2017-01-28T08:25:20.795Z,1019.78
2017-01-28T08:26:43.035Z,1019.8
2017-01-28T08:28:05.511Z,1019.8
2017-01-28T08:29:27.848Z,1019.83
2017-01-28T08:30:49.503Z,1019.81
2017-01-28T08:32:11.604Z,1019.82
2017-01-28T08:33:34.485Z,1019.83
2017-01-28T08:34:56.849Z,1019.83
2017-01-28T08:36:18.963Z,1019.79
2017-01-28T08:37:41.072Z,1019.79
2017-01-28T08:39:02.740Z,1019.78
2017-01-28T08:40:25.065Z,1019.81
2017-01-28T08:41:46.781Z,1019.84
2017-01-28T08:43:08.487Z,1019.83
2017-01-28T08:44:31.362Z,1019.82
2017-01-28T08:45:53.872Z,1019.86
2017-01-28T08:47:15.637Z,1019.79
2017-01-28T08:48:38.264Z,1019.79
2017-01-28T08:50:00.751Z,1019.75
2017-01-28T08:51:23.102Z,1019.73
2017-01-28T08:52:45.956Z,1019.75
2017-01-28T08:54:08.421Z,1019.76
2017-01-28T08:55:30.940Z,1019.78
2017-01-28T08:56:53.816Z,1019.75
2017-01-28T08:58:16.711Z,1019.79
2017-01-28T08:59:39.564Z,1019.77
2017-01-28T09:01:00.844Z,1019.78
2017-01-28T09:02:22.791Z,1019.78
2017-01-28T09:03:44.076Z,1019.78
2017-01-28T09:05:06.538Z,1019.83
2017-01-28T09:06:27.883Z,1019.79
2017-01-28T09:07:50.812Z,1019.81
2017-01-28T09:09:12.924Z,1019.81
2017-01-28T09:10:35.004Z,1019.78
2017-01-28T09:11:57.475Z,1019.76
2017-01-28T09:13:20.291Z,1019.78
2017-01-28T09:14:42.370Z,1019.75
2017-01-28T09:16:04.056Z,1019.73
2017-01-28T09:17:26.637Z,1019.75
2017-01-28T09:18:49.785Z,1019.74
2017-01-28T09:20:12.276Z,1019.73
2017-01-28T09:22:06.188Z,1019.78
2017-01-28T09:23:27.474Z,1019.76
2017-01-28T09:24:49.936Z,1019.8
2017-01-28T09:26:12.816Z,1019.8
2017-01-28T09:27:34.159Z,1019.77
2017-01-28T09:28:56.643Z,1019.79
2017-01-28T09:30:19.047Z,1019.73
2017-01-28T09:31:41.162Z,1019.76
2017-01-28T09:33:02.912Z,1019.74
2017-01-28T09:34:25.129Z,1019.72
2017-01-28T09:35:48.332Z,1019.73
2017-01-28T09:37:10.460Z,1019.69
2017-01-28T09:38:32.145Z,1019.72
2017-01-28T09:39:54.223Z,1019.68
2017-01-28T09:41:17.406Z,1019.74
2017-01-28T09:42:40.036Z,1019.79
2017-01-28T09:44:02.915Z,1019.78
2017-01-28T09:45:25.835Z,1019.75
2017-01-28T09:46:48.037Z,1019.73
2017-01-28T09:48:10.230Z,1019.68
2017-01-28T09:49:32.766Z,1019.69
2017-01-28T09:50:55.424Z,1019.72
2017-01-28T09:52:18.152Z,1019.7
2017-01-28T09:53:40.614Z,1019.68
2017-01-28T09:55:02.281Z,1019.7
2017-01-28T09:56:24.740Z,1019.72
2017-01-28T09:57:47.544Z,1019.71
2017-01-28T09:59:10.024Z,1019.68
2017-01-28T10:00:32.493Z,1019.7
2017-01-28T10:01:54.167Z,1019.64
2017-01-28T10:03:16.532Z,1019.63
2017-01-28T10:04:37.808Z,1019.62
2017-01-28T10:06:00.293Z,1019.62
2017-01-28T10:07:22.387Z,1019.64
2017-01-28T10:08:44.711Z,1019.64
2017-01-28T10:10:06.380Z,1019.63
2017-01-28T10:11:28.927Z,1019.64
2017-01-28T10:12:51.934Z,1019.61
2017-01-28T10:14:13.866Z,1019.65
2017-01-28T10:15:36.332Z,1019.61
2017-01-28T10:16:58.406Z,1019.56
2017-01-28T10:18:20.495Z,1019.6
2017-01-28T10:19:42.980Z,1019.59
2017-01-28T10:21:05.442Z,1019.58
2017-01-28T10:22:27.921Z,1019.59
2017-01-28T10:23:50.402Z,1019.61
2017-01-28T10:25:12.771Z,1019.6
2017-01-28T10:26:35.290Z,1019.62
2017-01-28T10:27:57.382Z,1019.55
2017-01-28T10:29:19.472Z,1019.52
2017-01-28T10:30:42.296Z,1019.44
2017-01-28T10:32:04.850Z,1019.5
2017-01-28T10:33:27.402Z,1019.45
2017-01-28T10:34:49.471Z,1019.47
2017-01-28T10:36:11.901Z,1019.44
2017-01-28T10:37:34.394Z,1019.41
2017-01-28T10:38:57.271Z,1019.39
2017-01-28T10:40:19.737Z,1019.4
2017-01-28T10:41:41.258Z,1019.39
2017-01-28T10:43:03.331Z,1019.43
2017-01-28T10:44:25.863Z,1019.38
2017-01-28T10:45:48.339Z,1019.43
2017-01-28T10:47:11.190Z,1019.35
2017-01-28T10:48:32.881Z,1019.3
2017-01-28T10:49:55.410Z,1019.26
2017-01-28T10:51:17.474Z,1019.28
2017-01-28T10:52:39.910Z,1019.22
2017-01-28T10:54:01.228Z,1019.28
2017-01-28T10:55:23.440Z,1019.26
2017-01-28T10:56:46.349Z,1019.25
2017-01-28T10:58:09.107Z,1019.27
2017-01-28T10:59:31.206Z,1019.22
2017-01-28T11:00:53.793Z,1019.21
2017-01-28T11:02:16.348Z,1019.24
2017-01-28T11:03:38.270Z,1019.18
2017-01-28T11:05:00.350Z,1019.19
2017-01-28T11:06:22.457Z,1019.14
2017-01-28T11:07:44.938Z,1019.18
2017-01-28T11:09:08.107Z,1019.16
2017-01-28T11:10:30.842Z,1019.16
2017-01-28T11:11:53.349Z,1019.19
2017-01-28T11:13:15.818Z,1019.18
2017-01-28T11:14:38.179Z,1019.18
2017-01-28T11:16:00.645Z,1019.13
2017-01-28T11:17:23.506Z,1019.15
2017-01-28T11:18:45.996Z,1019.11
2017-01-28T11:20:08.389Z,1019.1
2017-01-28T11:21:30.853Z,1019.03
2017-01-28T11:22:53.366Z,1019.05
2017-01-28T11:24:14.699Z,1019
2017-01-28T11:25:37.556Z,1019
2017-01-28T11:27:00.072Z,1019.04
2017-01-28T11:28:23.047Z,1019.01
2017-01-28T11:29:46.069Z,1019.02
2017-01-28T11:31:08.910Z,1019.03
2017-01-28T11:32:31.459Z,1019.02
2017-01-28T11:33:53.595Z,1018.96
2017-01-28T11:35:15.661Z,1018.95
2017-01-28T11:36:37.677Z,1018.97
2017-01-28T11:37:58.976Z,1018.92
2017-01-28T11:39:21.479Z,1018.89
2017-01-28T11:40:43.946Z,1018.88
2017-01-28T11:42:06.475Z,1018.88
2017-01-28T11:43:27.748Z,1018.83
2017-01-28T11:44:50.336Z,1018.83
2017-01-28T11:46:13.252Z,1018.83
2017-01-28T11:47:36.474Z,1018.82
2017-01-28T11:48:57.831Z,1018.88
2017-01-28T11:50:20.685Z,1018.9
2017-01-28T11:51:42.824Z,1018.82
2017-01-28T11:53:04.759Z,1018.82
2017-01-28T11:54:27.757Z,1018.8
2017-01-28T11:55:50.365Z,1018.77
2017-01-28T11:57:13.268Z,1018.77
2017-01-28T11:58:36.403Z,1018.72
2017-01-28T11:59:58.466Z,1018.73
2017-01-28T12:01:20.943Z,1018.69
2017-01-28T12:02:43.014Z,1018.63
2017-01-28T12:04:05.022Z,1018.63
2017-01-28T12:05:27.094Z,1018.6
2017-01-28T12:06:49.984Z,1018.57
2017-01-28T12:08:12.525Z,1018.51
2017-01-28T12:09:35.344Z,1018.53
2017-01-28T12:10:57.809Z,1018.45
2017-01-28T12:12:20.706Z,1018.48
2017-01-28T12:13:42.803Z,1018.49
2017-01-28T12:15:05.255Z,1018.5
2017-01-28T12:16:27.746Z,1018.45
2017-01-28T12:17:49.824Z,1018.45
2017-01-28T12:19:12.315Z,1018.38
2017-01-28T12:20:34.654Z,1018.44
2017-01-28T12:21:57.120Z,1018.43
2017-01-28T12:23:18.775Z,1018.39
2017-01-28T12:24:41.232Z,1018.38
2017-01-28T12:26:02.774Z,1018.39
2017-01-28T12:27:24.863Z,1018.4
2017-01-28T12:28:47.735Z,1018.29
2017-01-28T12:30:10.261Z,1018.33
2017-01-28T12:31:33.055Z,1018.32
2017-01-28T12:32:54.826Z,1018.34
2017-01-28T12:34:17.718Z,1018.3
2017-01-28T12:35:40.579Z,1018.27
2017-01-28T12:37:03.303Z,1018.27
2017-01-28T12:38:25.002Z,1018.25
2017-01-28T12:39:47.485Z,1018.24
2017-01-28T12:41:10.379Z,1018.26
2017-01-28T12:42:32.299Z,1018.27
2017-01-28T12:43:53.981Z,1018.27
2017-01-28T12:45:16.955Z,1018.25
2017-01-28T12:46:39.505Z,1018.17
2017-01-28T12:48:02.714Z,1018.19
2017-01-28T12:49:25.607Z,1018.11
2017-01-28T12:50:47.906Z,1018.1
2017-01-28T12:52:10.088Z,1018.08
2017-01-28T12:53:32.446Z,1018.01
2017-01-28T12:54:54.958Z,1017.96
2017-01-28T12:56:17.436Z,1017.91
2017-01-28T12:57:39.105Z,1017.86
2017-01-28T12:59:01.886Z,1017.84
2017-01-28T13:00:23.953Z,1017.8
2017-01-28T13:01:46.047Z,1017.83
2017-01-28T13:03:08.656Z,1017.76
2017-01-28T13:04:31.468Z,1017.77
2017-01-28T13:05:53.567Z,1017.8
2017-01-28T13:07:16.225Z,1017.84
2017-01-28T13:08:39.096Z,1017.85
2017-01-28T13:10:01.878Z,1017.88
2017-01-28T13:11:24.372Z,1017.88
2017-01-28T13:12:46.874Z,1017.84
2017-01-28T13:14:09.298Z,1017.81
2017-01-28T13:15:32.549Z,1017.78
2017-01-28T13:16:55.483Z,1017.77
2017-01-28T13:18:17.977Z,1017.78
2017-01-28T13:19:40.879Z,1017.76
2017-01-28T13:21:03.688Z,1017.79
2017-01-28T13:22:26.539Z,1017.72
2017-01-28T13:23:49.163Z,1017.71
2017-01-28T13:25:11.659Z,1017.72
2017-01-28T13:26:34.548Z,1017.68
2017-01-28T13:27:56.694Z,1017.66
2017-01-28T13:29:19.197Z,1017.62
2017-01-28T13:30:42.080Z,1017.68
2017-01-28T13:32:04.458Z,1017.68
2017-01-28T13:33:26.569Z,1017.65
2017-01-28T13:34:48.630Z,1017.62
2017-01-28T13:36:10.291Z,1017.6
2017-01-28T13:37:33.010Z,1017.62
2017-01-28T13:38:55.490Z,1017.64
2017-01-28T13:40:18.035Z,1017.65
2017-01-28T13:41:40.560Z,1017.69
2017-01-28T13:43:02.541Z,1017.68
2017-01-28T13:44:25.299Z,1017.71
2017-01-28T13:45:47.552Z,1017.68
2017-01-28T13:47:10.066Z,1017.69
2017-01-28T13:48:33.280Z,1017.64
2017-01-28T13:49:55.749Z,1017.61
2017-01-28T13:51:17.862Z,1017.58
2017-01-28T13:52:40.342Z,1017.6
2017-01-28T13:54:02.325Z,1017.62
2017-01-28T13:55:24.801Z,1017.66
2017-01-28T13:56:47.738Z,1017.72
2017-01-28T13:58:10.021Z,1017.73
2017-01-28T13:59:32.782Z,1017.73
2017-01-28T14:00:55.253Z,1017.64
2017-01-28T14:02:17.808Z,1017.63
2017-01-28T14:03:39.461Z,1017.61
2017-01-28T14:05:01.856Z,1017.56
2017-01-28T14:06:24.761Z,1017.6
2017-01-28T14:07:46.859Z,1017.62
2017-01-28T14:09:08.138Z,1017.58
2017-01-28T14:10:30.123Z,1017.59
2017-01-28T14:11:51.811Z,1017.55
2017-01-28T14:13:14.879Z,1017.46
2017-01-28T14:14:37.401Z,1017.5
2017-01-28T14:16:00.539Z,1017.54
2017-01-28T14:17:23.125Z,1017.53
2017-01-28T14:18:45.225Z,1017.48
2017-01-28T14:20:07.368Z,1017.55
2017-01-28T14:21:30.749Z,1017.52
2017-01-28T14:22:53.642Z,1017.53
2017-01-28T14:24:16.140Z,1017.47
2017-01-28T14:25:38.201Z,1017.45
2017-01-28T14:27:00.966Z,1017.48
2017-01-28T14:28:23.521Z,1017.51
2017-01-28T14:29:46.017Z,1017.52
2017-01-28T14:31:07.392Z,1017.54
2017-01-28T14:32:29.854Z,1017.57
2017-01-28T14:33:51.919Z,1017.63
2017-01-28T14:35:14.391Z,1017.65
2017-01-28T14:36:36.868Z,1017.69
2017-01-28T14:37:58.849Z,1017.65
2017-01-28T14:39:21.809Z,1017.6
2017-01-28T14:40:44.681Z,1017.57
2017-01-28T14:42:07.746Z,1017.58
2017-01-28T14:43:29.345Z,1017.52
2017-01-28T14:44:51.820Z,1017.49
2017-01-28T14:46:13.105Z,1017.47
2017-01-28T14:47:35.172Z,1017.48
2017-01-28T14:48:57.899Z,1017.51
2017-01-28T14:50:20.503Z,1017.48
2017-01-28T14:51:43.388Z,1017.48
2017-01-28T14:53:05.178Z,1017.49
2017-01-28T14:54:27.571Z,1017.45
2017-01-28T14:55:49.644Z,1017.49
2017-01-28T14:57:11.766Z,1017.46
2017-01-28T14:58:33.852Z,1017.44
2017-01-28T14:59:55.787Z,1017.48
2017-01-28T15:01:18.259Z,1017.46
2017-01-28T15:02:40.747Z,1017.45
2017-01-28T15:04:03.724Z,1017.5
2017-01-28T15:05:26.132Z,1017.57
2017-01-28T15:06:48.611Z,1017.6
2017-01-28T15:08:10.716Z,1017.59
2017-01-28T15:09:32.775Z,1017.55
2017-01-28T15:10:55.200Z,1017.57
2017-01-28T15:12:17.431Z,1017.62
2017-01-28T15:13:39.928Z,1017.59
2017-01-28T15:15:02.818Z,1017.58
2017-01-28T15:16:25.601Z,1017.62
2017-01-28T15:17:47.418Z,1017.6
2017-01-28T15:19:10.099Z,1017.58
2017-01-28T15:20:32.796Z,1017.59
2017-01-28T15:21:55.174Z,1017.56
2017-01-28T15:23:17.410Z,1017.51
2017-01-28T15:24:40.393Z,1017.53
2017-01-28T15:26:02.901Z,1017.56
2017-01-28T15:27:25.614Z,1017.55
2017-01-28T15:28:48.506Z,1017.59
2017-01-28T15:30:11.506Z,1017.58
2017-01-28T15:31:32.400Z,1017.6
2017-01-28T15:32:55.448Z,1017.58
2017-01-28T15:34:17.677Z,1017.53
2017-01-28T15:35:40.588Z,1017.59
2017-01-28T15:37:01.958Z,1017.55
2017-01-28T15:38:24.893Z,1017.55
2017-01-28T15:39:46.583Z,1017.53
2017-01-28T15:41:08.656Z,1017.52
2017-01-28T15:42:31.553Z,1017.47
2017-01-28T15:43:54.456Z,1017.48
2017-01-28T15:45:17.357Z,1017.47
2017-01-28T15:46:40.265Z,1017.5
2017-01-28T15:48:02.796Z,1017.49
2017-01-28T15:49:25.147Z,1017.47
2017-01-28T15:50:47.738Z,1017.46
2017-01-28T15:52:10.263Z,1017.53
2017-01-28T15:53:32.435Z,1017.51
2017-01-28T15:54:54.863Z,1017.51
2017-01-28T15:56:17.788Z,1017.52
2017-01-28T15:57:40.934Z,1017.53
2017-01-28T15:59:03.474Z,1017.53
2017-01-28T16:00:26.316Z,1017.52
2017-01-28T16:01:49.513Z,1017.54
2017-01-28T16:03:12.023Z,1017.54
2017-01-28T16:04:34.192Z,1017.55
2017-01-28T16:05:57.013Z,1017.56
2017-01-28T16:07:18.804Z,1017.58
2017-01-28T16:08:40.919Z,1017.57
2017-01-28T16:10:03.651Z,1017.62
2017-01-28T16:11:26.488Z,1017.6
2017-01-28T16:12:48.592Z,1017.59
2017-01-28T16:14:11.631Z,1017.56
2017-01-28T16:15:34.187Z,1017.6
2017-01-28T16:16:56.540Z,1017.59
2017-01-28T16:18:17.524Z,1017.57
2017-01-28T16:19:40.440Z,1017.56
2017-01-28T16:21:03.076Z,1017.55
2017-01-28T16:22:25.463Z,1017.6
2017-01-28T16:23:47.947Z,1017.66
2017-01-28T16:25:10.892Z,1017.64
2017-01-28T16:26:33.401Z,1017.62
2017-01-28T16:27:55.833Z,1017.59
2017-01-28T16:29:17.532Z,1017.61
2017-01-28T16:30:39.199Z,1017.62
2017-01-28T16:32:01.290Z,1017.61
2017-01-28T16:33:23.702Z,1017.57
2017-01-28T16:34:45.783Z,1017.54
2017-01-28T16:36:08.358Z,1017.51
2017-01-28T16:37:30.044Z,1017.49
2017-01-28T16:38:52.867Z,1017.48
2017-01-28T16:40:14.977Z,1017.49